createdAt,value
2023-09-26T00:02:26.092Z,9.35
2023-09-26T00:04:52.597Z,11.60
2023-09-26T00:07:19.073Z,12.88
2023-09-26T00:09:46.120Z,8.25
2023-09-26T00:12:12.503Z,8.38
2023-09-26T00:14:39.007Z,11.38
2023-09-26T00:17:06.523Z,7.88
2023-09-26T00:19:32.922Z,11.93
2023-09-26T00:21:59.356Z,6.53
2023-09-26T00:24:25.756Z,6.60
2023-09-26T00:26:52.110Z,8.73
2023-09-26T00:29:18.486Z,7.45
2023-09-26T00:31:44.936Z,6.07
2023-09-26T00:34:11.850Z,5.70
2023-09-26T00:36:38.485Z,6.10
2023-09-26T00:39:04.838Z,7.03
2023-09-26T00:41:31.196Z,7.82
2023-09-26T00:43:57.574Z,5.72
2023-09-26T00:46:24.223Z,7.57
2023-09-26T00:48:50.912Z,11.23
2023-09-26T00:51:17.315Z,8.27
2023-09-26T00:53:43.710Z,7.55
2023-09-26T00:56:10.555Z,8.02
2023-09-26T00:58:37.419Z,8.82
2023-09-26T01:01:04.033Z,9.70
2023-09-26T01:03:30.707Z,11.23
2023-09-26T01:05:57.080Z,5.47
2023-09-26T01:08:23.539Z,7.07
2023-09-26T01:10:49.943Z,6.97
2023-09-26T01:13:16.228Z,7.78
2023-09-26T01:15:44.016Z,6.88
2023-09-26T01:18:11.242Z,6.68
2023-09-26T01:20:41.216Z,7.82
2023-09-26T01:23:07.703Z,13.88
2023-09-26T01:25:37.294Z,10.23
2023-09-26T01:28:09.476Z,11.67
2023-09-26T01:30:36.576Z,12.05
2023-09-26T01:33:03.778Z,6.35
2023-09-26T01:35:30.227Z,12.52
2023-09-26T01:37:56.973Z,8.82
2023-09-26T01:40:23.939Z,11.15
2023-09-26T01:42:50.368Z,7.25
2023-09-26T01:45:16.714Z,9.43
2023-09-26T01:47:47.071Z,9.15
2023-09-26T01:50:13.908Z,10.77
2023-09-26T01:52:40.482Z,8.93
2023-09-26T01:55:08.934Z,7.68
2023-09-26T01:57:35.327Z,8.45
2023-09-26T02:00:14.273Z,15.55
2023-09-26T02:02:41.337Z,12.60
2023-09-26T02:05:08.790Z,9.50
2023-09-26T02:07:35.647Z,8.95
2023-09-26T02:10:02.627Z,7.63
2023-09-26T02:12:29.011Z,10.82
2023-09-26T02:14:55.430Z,11.73
2023-09-26T02:17:21.740Z,8.55
2023-09-26T02:19:48.322Z,9.52
2023-09-26T02:22:14.841Z,7.70
2023-09-26T02:24:41.218Z,16.33
2023-09-26T02:27:07.660Z,8.57
2023-09-26T02:29:34.010Z,11.43
2023-09-26T02:32:00.483Z,11.18
2023-09-26T02:34:26.914Z,10.82
2023-09-26T02:36:53.309Z,9.90
2023-09-26T02:39:19.680Z,8.93
2023-09-26T02:41:46.042Z,9.70
2023-09-26T02:44:12.453Z,11.85
2023-09-26T02:46:38.818Z,9.82
2023-09-26T02:49:05.305Z,8.68
2023-09-26T02:51:31.633Z,8.23
2023-09-26T02:53:57.935Z,9.52
2023-09-26T02:56:24.276Z,10.00
2023-09-26T02:58:50.564Z,9.90
2023-09-26T03:01:17.125Z,13.73
2023-09-26T03:03:43.557Z,10.85
2023-09-26T03:06:09.953Z,16.52
2023-09-26T03:08:36.453Z,9.20
2023-09-26T03:11:03.392Z,12.02
2023-09-26T03:13:33.976Z,16.40
2023-09-26T03:16:00.834Z,7.25
2023-09-26T03:18:27.433Z,8.95
2023-09-26T03:20:54.235Z,10.35
2023-09-26T03:23:24.020Z,9.93
2023-09-26T03:25:50.311Z,10.43
2023-09-26T03:28:16.920Z,9.60
2023-09-26T03:30:44.994Z,10.90
2023-09-26T03:33:11.658Z,12.88
2023-09-26T03:35:38.124Z,13.00
2023-09-26T03:38:04.560Z,8.23
2023-09-26T03:40:31.136Z,12.23
2023-09-26T03:42:57.617Z,13.50
2023-09-26T03:45:24.716Z,11.18
2023-09-26T03:47:51.406Z,11.40
2023-09-26T03:50:17.861Z,10.30
2023-09-26T03:52:44.224Z,10.00
2023-09-26T03:55:10.619Z,10.25
2023-09-26T03:57:37.033Z,10.57
2023-09-26T04:00:08.927Z,11.80
2023-09-26T04:02:35.307Z,9.68
2023-09-26T04:05:01.589Z,10.27
2023-09-26T04:07:29.434Z,10.35
2023-09-26T04:09:55.899Z,7.35
2023-09-26T04:12:22.620Z,14.52
2023-09-26T04:14:49.032Z,11.70
2023-09-26T04:17:15.391Z,7.80
2023-09-26T04:19:41.980Z,8.38
2023-09-26T04:22:08.368Z,7.90
2023-09-26T04:24:34.786Z,12.05
2023-09-26T04:27:01.246Z,8.77
2023-09-26T04:29:27.545Z,13.73
2023-09-26T04:31:53.940Z,8.52
2023-09-26T04:34:22.648Z,8.25
2023-09-26T04:36:49.145Z,10.48
2023-09-26T04:39:15.510Z,11.90
2023-09-26T04:41:41.874Z,8.88
2023-09-26T04:44:08.614Z,9.02
2023-09-26T04:46:35.033Z,8.50
2023-09-26T04:49:01.472Z,12.82
2023-09-26T04:51:27.858Z,10.68
2023-09-26T04:53:54.224Z,8.00
2023-09-26T04:56:20.653Z,8.65
2023-09-26T04:58:47.089Z,10.05
2023-09-26T05:01:14.428Z,11.55
2023-09-26T05:03:41.960Z,7.13
2023-09-26T05:06:08.743Z,10.32
2023-09-26T05:08:35.372Z,8.80
2023-09-26T05:11:01.733Z,9.98
2023-09-26T05:13:28.127Z,8.88
2023-09-26T05:15:54.541Z,7.22
2023-09-26T05:18:22.758Z,8.55
2023-09-26T05:20:49.326Z,8.98
2023-09-26T05:23:15.676Z,7.55
2023-09-26T05:25:42.012Z,8.38
2023-09-26T05:28:08.391Z,8.82
2023-09-26T05:30:37.007Z,10.63
2023-09-26T05:33:03.598Z,10.15
2023-09-26T05:35:30.009Z,12.32
2023-09-26T05:37:56.332Z,12.07
2023-09-26T05:40:22.701Z,12.38
2023-09-26T05:42:49.033Z,13.07
2023-09-26T05:45:16.573Z,12.38
2023-09-26T05:47:42.870Z,12.90
2023-09-26T05:50:09.538Z,11.15
2023-09-26T05:52:35.933Z,14.77
2023-09-26T05:55:02.428Z,17.33
2023-09-26T05:57:29.179Z,20.35
2023-09-26T05:59:55.601Z,14.07
2023-09-26T06:02:21.975Z,9.20
2023-09-26T06:04:48.420Z,12.05
2023-09-26T06:07:16.215Z,11.10
2023-09-26T06:09:53.315Z,13.18
2023-09-26T06:12:24.589Z,13.02
2023-09-26T06:14:50.933Z,9.88
2023-09-26T06:17:17.468Z,12.32
2023-09-26T06:19:48.215Z,12.18
2023-09-26T06:22:15.331Z,14.32
2023-09-26T06:24:41.734Z,12.57
2023-09-26T06:27:08.302Z,13.68
2023-09-26T06:29:38.362Z,16.50
2023-09-26T06:32:04.823Z,16.77
2023-09-26T06:34:33.028Z,14.68
2023-09-26T06:36:59.404Z,19.75
2023-09-26T06:39:25.777Z,22.58
2023-09-26T06:41:52.143Z,20.80
2023-09-26T06:44:18.438Z,12.65
2023-09-26T06:46:44.859Z,16.20
2023-09-26T06:49:12.062Z,21.40
2023-09-26T06:51:38.548Z,15.40
2023-09-26T06:54:05.098Z,13.73
2023-09-26T06:56:31.523Z,13.43
2023-09-26T06:58:58.074Z,16.10
2023-09-26T07:01:24.595Z,14.57
2023-09-26T07:03:51.422Z,22.23
2023-09-26T07:06:18.044Z,16.40
2023-09-26T07:08:44.677Z,23.88
2023-09-26T07:11:11.218Z,21.35
2023-09-26T07:13:48.659Z,16.55
2023-09-26T07:16:23.138Z,12.00
2023-09-26T07:18:50.033Z,17.13
2023-09-26T07:21:16.559Z,14.02
2023-09-26T07:23:42.874Z,20.70
2023-09-26T07:26:20.087Z,14.43
2023-09-26T07:28:46.661Z,12.77
2023-09-26T07:31:14.838Z,16.15
2023-09-26T07:33:41.451Z,15.50
2023-09-26T07:36:08.433Z,18.50
2023-09-26T07:38:35.203Z,16.05
2023-09-26T07:41:02.089Z,13.32
2023-09-26T07:43:31.380Z,11.32
2023-09-26T07:46:01.016Z,13.98
2023-09-26T07:48:27.366Z,17.40
2023-09-26T07:50:53.752Z,13.38
2023-09-26T07:53:20.203Z,19.17
2023-09-26T07:55:47.875Z,16.10
2023-09-26T07:58:14.253Z,17.17
2023-09-26T08:00:40.596Z,15.50
2023-09-26T08:03:08.788Z,16.08
2023-09-26T08:05:35.806Z,15.13
2023-09-26T08:08:05.266Z,15.43
2023-09-26T08:10:32.838Z,25.20
2023-09-26T08:12:59.793Z,29.20
2023-09-26T08:15:26.442Z,19.88
2023-09-26T08:17:52.767Z,19.10
2023-09-26T08:20:19.189Z,13.50
2023-09-26T08:22:45.467Z,16.08
2023-09-26T08:25:11.892Z,11.60
2023-09-26T08:27:38.241Z,14.23
2023-09-26T08:30:04.827Z,15.48
2023-09-26T08:32:31.677Z,14.52
2023-09-26T08:34:58.468Z,15.32
2023-09-26T08:37:25.047Z,11.63
2023-09-26T08:39:52.623Z,19.92
2023-09-26T08:42:27.397Z,14.38
2023-09-26T08:44:54.380Z,11.52
2023-09-26T08:47:23.193Z,12.93
2023-09-26T08:49:51.460Z,16.13
2023-09-26T08:52:17.825Z,12.35
2023-09-26T08:54:44.493Z,17.98
2023-09-26T08:57:11.488Z,14.38
2023-09-26T08:59:37.850Z,15.57
2023-09-26T09:02:04.724Z,13.90
2023-09-26T09:04:31.284Z,11.50
2023-09-26T09:07:01.415Z,19.52
2023-09-26T09:09:27.780Z,16.25
2023-09-26T09:11:54.103Z,11.45
2023-09-26T09:14:33.693Z,13.38
2023-09-26T09:17:00.260Z,20.17
2023-09-26T09:19:46.905Z,14.25
2023-09-26T09:22:16.920Z,15.68
2023-09-26T09:24:43.340Z,13.75
2023-09-26T09:27:09.720Z,10.73
2023-09-26T09:29:36.820Z,16.65
2023-09-26T09:32:03.740Z,17.08
2023-09-26T09:34:30.202Z,13.40
2023-09-26T09:36:57.630Z,14.07
2023-09-26T09:39:24.088Z,9.65
2023-09-26T09:41:50.635Z,9.32
2023-09-26T09:44:17.115Z,10.25
2023-09-26T09:46:44.239Z,17.58
2023-09-26T09:49:12.270Z,15.15
2023-09-26T09:51:47.177Z,11.38
2023-09-26T09:54:14.725Z,9.95
2023-09-26T09:56:41.160Z,10.27
2023-09-26T09:59:09.968Z,8.45
2023-09-26T10:01:36.483Z,9.90
2023-09-26T10:04:02.985Z,11.02
2023-09-26T10:06:29.664Z,5.90
2023-09-26T10:08:57.240Z,12.13
2023-09-26T10:11:24.950Z,4.53
2023-09-26T10:13:51.528Z,7.22
2023-09-26T10:16:19.505Z,12.85
2023-09-26T10:18:47.426Z,8.55
2023-09-26T10:21:22.589Z,11.60
2023-09-26T10:24:07.169Z,9.07
2023-09-26T10:26:34.350Z,6.20
2023-09-26T10:29:06.935Z,13.57
2023-09-26T10:31:34.452Z,11.65
2023-09-26T10:34:02.567Z,8.40
2023-09-26T10:36:29.662Z,8.73
2023-09-26T10:39:02.437Z,9.70
2023-09-26T10:41:30.288Z,7.43
2023-09-26T10:43:59.883Z,10.05
2023-09-26T10:46:27.819Z,6.80
2023-09-26T10:48:56.924Z,7.65
2023-09-26T10:51:23.388Z,9.07
2023-09-26T10:53:49.946Z,10.65
2023-09-26T10:56:16.443Z,7.95
2023-09-26T10:58:43.123Z,10.00
2023-09-26T11:01:10.056Z,6.55
2023-09-26T11:03:36.610Z,8.90
2023-09-26T11:06:04.005Z,6.88
2023-09-26T11:08:31.041Z,10.48
2023-09-26T11:10:57.653Z,8.57
2023-09-26T11:13:24.899Z,10.05
2023-09-26T11:15:54.811Z,6.50
2023-09-26T11:18:21.301Z,7.68
2023-09-26T11:20:51.565Z,12.02
2023-09-26T11:23:39.667Z,10.48
2023-09-26T11:26:09.662Z,9.50
2023-09-26T11:28:36.470Z,6.28
2023-09-26T11:31:03.543Z,8.63
2023-09-26T11:33:29.997Z,8.85
2023-09-26T11:35:56.505Z,7.03
2023-09-26T11:38:22.944Z,9.38
2023-09-26T11:40:49.428Z,11.98
2023-09-26T11:43:15.989Z,7.25
2023-09-26T11:45:42.444Z,7.50
2023-09-26T11:48:08.857Z,6.68
2023-09-26T11:50:36.910Z,10.85
2023-09-26T11:53:03.442Z,5.80
2023-09-26T11:55:32.859Z,9.57
2023-09-26T11:57:59.586Z,7.85
2023-09-26T12:00:27.595Z,9.15
2023-09-26T12:02:54.091Z,6.57
2023-09-26T12:05:21.989Z,8.05
2023-09-26T12:07:51.602Z,16.55
2023-09-26T12:10:19.084Z,11.52
2023-09-26T12:12:45.543Z,7.18
2023-09-26T12:15:21.458Z,6.57
2023-09-26T12:17:48.696Z,10.95
2023-09-26T12:20:19.073Z,8.43
2023-09-26T12:22:45.484Z,8.77
2023-09-26T12:25:12.927Z,11.35
2023-09-26T12:27:39.239Z,10.82
2023-09-26T12:30:06.461Z,47.72
2023-09-26T12:32:33.350Z,30.58
2023-09-26T12:34:59.863Z,8.00
2023-09-26T12:37:26.229Z,85.57
2023-09-26T12:39:55.267Z,35.42
2023-09-26T12:42:21.627Z,70.00
2023-09-26T12:44:48.047Z,88.53
2023-09-26T12:47:15.090Z,105.38
2023-09-26T12:49:43.439Z,65.88
2023-09-26T12:52:10.070Z,82.43
2023-09-26T12:54:37.348Z,27.77
2023-09-26T12:57:04.122Z,50.90
2023-09-26T12:59:30.454Z,96.25
2023-09-26T13:01:57.138Z,106.03
2023-09-26T13:04:24.330Z,131.52
2023-09-26T13:06:50.826Z,173.48
2023-09-26T13:09:17.198Z,191.90
2023-09-26T13:11:43.735Z,216.10
2023-09-26T13:14:10.136Z,290.40
2023-09-26T13:16:36.680Z,327.38
2023-09-26T13:19:04.634Z,268.77
2023-09-26T13:21:31.298Z,226.75
2023-09-26T13:23:57.843Z,228.80
2023-09-26T13:26:24.264Z,266.45
2023-09-26T13:28:50.762Z,276.90
2023-09-26T13:31:17.137Z,293.17
2023-09-26T13:33:43.487Z,283.08
2023-09-26T13:36:10.479Z,238.10
2023-09-26T13:38:36.793Z,152.15
2023-09-26T13:41:06.405Z,131.20
2023-09-26T13:45:59.696Z,240.32
2023-09-26T13:48:26.132Z,203.27
2023-09-26T13:50:52.441Z,225.82
2023-09-26T13:53:18.803Z,176.40
2023-09-26T13:55:45.207Z,98.03
2023-09-26T13:58:11.687Z,146.23
2023-09-26T14:00:38.824Z,124.30
2023-09-26T14:03:05.377Z,138.77
2023-09-26T14:05:31.970Z,93.75
2023-09-26T14:07:58.459Z,77.60
2023-09-26T14:10:25.663Z,77.90
2023-09-26T14:12:52.210Z,104.88
2023-09-26T14:15:19.519Z,105.03
2023-09-26T14:17:45.895Z,125.97
2023-09-26T14:20:12.369Z,99.25
2023-09-26T14:22:39.745Z,88.75
2023-09-26T14:25:07.010Z,116.60
2023-09-26T14:27:38.952Z,93.50
2023-09-26T14:30:09.566Z,126.13
2023-09-26T14:32:37.174Z,129.10
2023-09-26T14:35:03.792Z,189.30
2023-09-26T14:37:30.187Z,123.68
2023-09-26T14:39:56.621Z,216.98
2023-09-26T14:42:22.993Z,209.30
2023-09-26T14:44:49.628Z,243.43
2023-09-26T14:47:16.001Z,306.05
2023-09-26T14:49:42.546Z,230.70
2023-09-26T14:52:09.822Z,272.90
2023-09-26T14:54:36.453Z,240.52
2023-09-26T14:57:03.001Z,274.67
2023-09-26T14:59:29.284Z,307.17
2023-09-26T15:01:55.908Z,267.42
2023-09-26T15:04:22.393Z,297.88
2023-09-26T15:06:48.762Z,334.88
2023-09-26T15:09:15.178Z,320.45
2023-09-26T15:11:41.488Z,331.05
2023-09-26T15:14:08.928Z,278.17
2023-09-26T15:16:36.821Z,345.30
2023-09-26T15:19:03.268Z,347.00
2023-09-26T15:21:29.931Z,315.30
2023-09-26T15:23:56.331Z,277.20
2023-09-26T15:26:22.851Z,268.58
2023-09-26T15:28:49.967Z,224.85
2023-09-26T15:31:16.570Z,269.00
2023-09-26T15:33:43.486Z,234.20
2023-09-26T15:36:13.181Z,197.63
2023-09-26T15:41:14.652Z,102.18
2023-09-26T15:43:41.005Z,237.88
2023-09-26T15:46:10.358Z,273.73
2023-09-26T15:48:36.753Z,261.55
2023-09-26T15:51:11.494Z,294.02
2023-09-26T15:53:38.606Z,218.45
2023-09-26T15:56:04.946Z,149.55
2023-09-26T15:58:31.351Z,132.85
2023-09-26T16:00:57.691Z,204.15
2023-09-26T16:03:24.098Z,223.73
2023-09-26T16:05:50.656Z,309.80
2023-09-26T16:08:17.101Z,348.38
2023-09-26T16:10:45.084Z,368.13
2023-09-26T16:13:11.575Z,370.10
2023-09-26T16:15:38.013Z,320.20
2023-09-26T16:18:04.904Z,350.63
2023-09-26T16:20:31.336Z,317.50
2023-09-26T16:22:58.024Z,245.40
2023-09-26T16:25:24.434Z,284.00
2023-09-26T16:27:50.818Z,202.70
2023-09-26T16:30:17.287Z,98.53
2023-09-26T16:32:43.645Z,12.07
2023-09-26T16:35:10.192Z,18.83
2023-09-26T16:37:36.675Z,9.40
2023-09-26T16:40:03.977Z,7.32
2023-09-26T16:42:30.246Z,8.98
2023-09-26T16:44:56.516Z,4.22
2023-09-26T16:47:22.784Z,4.85
2023-09-26T16:49:49.308Z,6.88
2023-09-26T16:52:17.741Z,6.00
2023-09-26T16:54:44.107Z,7.13
2023-09-26T16:57:10.495Z,5.90
2023-09-26T16:59:36.861Z,9.50
2023-09-26T17:02:03.279Z,8.07
2023-09-26T17:04:29.980Z,6.75
2023-09-26T17:06:57.694Z,6.03
2023-09-26T17:09:24.753Z,7.63
2023-09-26T17:11:51.126Z,6.45
2023-09-26T17:14:17.493Z,6.70
2023-09-26T17:16:43.913Z,8.77
2023-09-26T17:19:10.244Z,7.95
2023-09-26T17:21:36.715Z,5.40
2023-09-26T17:24:03.071Z,6.07
2023-09-26T17:26:29.366Z,11.07
2023-09-26T17:28:55.764Z,6.28
2023-09-26T17:31:22.202Z,15.60
2023-09-26T17:33:48.556Z,24.27
2023-09-26T17:36:15.034Z,8.60
2023-09-26T17:38:43.465Z,11.02
2023-09-26T17:41:09.997Z,10.98
2023-09-26T17:43:37.116Z,9.88
2023-09-26T17:46:03.651Z,8.02
2023-09-26T17:48:32.178Z,7.40
2023-09-26T17:50:58.821Z,6.95
2023-09-26T17:53:25.260Z,12.38
2023-09-26T17:55:51.606Z,16.50
2023-09-26T17:58:18.730Z,9.90
2023-09-26T18:00:45.109Z,8.73
2023-09-26T18:03:11.585Z,7.65
2023-09-26T18:05:38.001Z,9.05
2023-09-26T18:08:04.964Z,8.02
2023-09-26T18:10:31.389Z,6.28
2023-09-26T18:12:57.708Z,5.53
2023-09-26T18:15:24.028Z,5.05
2023-09-26T18:17:50.492Z,6.70
2023-09-26T18:20:16.914Z,10.48
2023-09-26T18:22:43.395Z,6.40
2023-09-26T18:25:10.012Z,6.53
2023-09-26T18:27:36.316Z,7.05
2023-09-26T18:30:03.106Z,11.10
2023-09-26T18:32:29.691Z,7.05
2023-09-26T18:34:56.201Z,9.43
2023-09-26T18:37:22.600Z,9.90
2023-09-26T18:39:50.213Z,4.70
2023-09-26T18:42:16.684Z,8.48
2023-09-26T18:44:43.021Z,12.88
2023-09-26T18:47:09.442Z,6.50
2023-09-26T18:49:36.892Z,13.00
2023-09-26T18:52:03.281Z,9.35
2023-09-26T18:54:29.692Z,7.57
2023-09-26T18:56:57.014Z,9.38
2023-09-26T18:59:23.855Z,8.68
2023-09-26T19:01:50.554Z,6.97
2023-09-26T19:04:17.085Z,8.52
2023-09-26T19:06:43.513Z,8.93
2023-09-26T19:09:10.115Z,7.28
2023-09-26T19:11:36.556Z,8.68
2023-09-26T19:14:03.038Z,6.45
2023-09-26T19:16:29.507Z,4.85
2023-09-26T19:19:04.857Z,7.57
2023-09-26T19:21:32.587Z,11.32
2023-09-26T19:23:58.969Z,10.90
2023-09-26T19:26:25.344Z,9.35
2023-09-26T19:28:51.800Z,14.32
2023-09-26T19:31:18.220Z,11.63
2023-09-26T19:33:44.568Z,14.02
2023-09-26T19:36:10.908Z,10.77
2023-09-26T19:38:37.203Z,11.63
2023-09-26T19:41:03.540Z,11.82
2023-09-26T19:43:30.653Z,10.55
2023-09-26T19:45:58.148Z,10.27
2023-09-26T19:48:24.592Z,10.55
2023-09-26T19:50:51.012Z,14.65
2023-09-26T19:53:17.499Z,9.00
2023-09-26T19:55:47.352Z,10.68
2023-09-26T19:58:13.756Z,12.32
2023-09-26T20:00:43.255Z,11.35
2023-09-26T20:03:11.550Z,11.45
2023-09-26T20:05:38.905Z,11.55
2023-09-26T20:08:05.558Z,20.27
2023-09-26T20:10:31.938Z,11.45
2023-09-26T20:12:58.273Z,11.77
2023-09-26T20:15:24.604Z,10.93
2023-09-26T20:17:51.208Z,12.45
2023-09-26T20:20:17.645Z,11.85
2023-09-26T20:22:44.207Z,11.45
2023-09-26T20:25:13.294Z,14.18
2023-09-26T20:27:39.743Z,10.10
2023-09-26T20:30:07.431Z,12.65
2023-09-26T20:32:35.228Z,16.65
2023-09-26T20:35:01.697Z,19.52
2023-09-26T20:37:28.332Z,10.38
2023-09-26T20:39:56.124Z,13.85
2023-09-26T20:42:22.441Z,13.35
2023-09-26T20:44:49.461Z,16.13
2023-09-26T20:47:15.807Z,13.52
2023-09-26T20:49:43.188Z,10.75
2023-09-26T20:52:09.664Z,12.68
2023-09-26T20:54:36.019Z,10.70
2023-09-26T20:57:02.374Z,14.27
2023-09-26T20:59:28.719Z,13.70
2023-09-26T21:01:55.453Z,15.75
2023-09-26T21:04:22.016Z,17.27
2023-09-26T21:06:50.025Z,12.23
2023-09-26T21:09:16.424Z,13.52
2023-09-26T21:11:42.792Z,12.05
2023-09-26T21:14:09.250Z,12.27
2023-09-26T21:16:35.766Z,17.13
2023-09-26T21:19:02.333Z,13.77
2023-09-26T21:21:29.390Z,14.40
2023-09-26T21:23:56.023Z,12.77
2023-09-26T21:26:23.071Z,17.77
2023-09-26T21:28:50.368Z,11.32
2023-09-26T21:31:17.286Z,10.73
2023-09-26T21:33:43.688Z,16.00
2023-09-26T21:36:10.087Z,21.25
2023-09-26T21:38:36.427Z,14.10
2023-09-26T21:41:02.777Z,16.05
2023-09-26T21:43:29.198Z,13.13
2023-09-26T21:45:55.713Z,14.27
2023-09-26T21:48:22.210Z,13.05
2023-09-26T21:50:48.579Z,16.42
2023-09-26T21:53:15.138Z,10.50
2023-09-26T21:55:41.661Z,16.67
2023-09-26T21:58:08.546Z,13.93
2023-09-26T22:00:35.005Z,16.30
2023-09-26T22:03:03.298Z,11.73
2023-09-26T22:05:30.592Z,11.38
2023-09-26T22:07:58.026Z,14.77
2023-09-26T22:10:24.742Z,10.88
2023-09-26T22:12:51.105Z,15.32
2023-09-26T22:15:17.926Z,15.30
2023-09-26T22:17:44.529Z,10.98
2023-09-26T22:20:15.537Z,12.95
2023-09-26T22:22:42.161Z,16.27
2023-09-26T22:25:09.620Z,15.93
2023-09-26T22:27:36.601Z,17.25
2023-09-26T22:30:04.047Z,14.82
2023-09-26T22:32:30.440Z,13.52
2023-09-26T22:34:57.295Z,14.38
2023-09-26T22:37:23.652Z,20.02
2023-09-26T22:39:50.083Z,16.70
2023-09-26T22:42:16.768Z,20.25
2023-09-26T22:44:45.264Z,14.40
2023-09-26T22:47:13.358Z,16.38
2023-09-26T22:49:39.863Z,13.63
2023-09-26T22:52:07.300Z,14.48
2023-09-26T22:54:33.728Z,13.35
2023-09-26T22:57:00.133Z,14.27
2023-09-26T22:59:26.653Z,19.63
2023-09-26T23:01:53.209Z,17.75
2023-09-26T23:04:19.694Z,12.45
2023-09-26T23:06:46.185Z,19.25
2023-09-26T23:09:13.350Z,11.85
2023-09-26T23:11:39.936Z,13.85
2023-09-26T23:14:06.454Z,12.75
2023-09-26T23:16:36.885Z,12.55
2023-09-26T23:21:30.144Z,15.05
2023-09-26T23:23:56.579Z,15.68
2023-09-26T23:26:23.013Z,13.95
2023-09-26T23:28:49.512Z,10.73
2023-09-26T23:31:16.562Z,13.90
2023-09-26T23:33:42.906Z,11.75
2023-09-26T23:36:13.943Z,15.20
2023-09-26T23:38:41.439Z,17.63
2023-09-26T23:41:08.344Z,13.18
2023-09-26T23:43:35.132Z,13.68
2023-09-26T23:46:02.049Z,14.57
2023-09-26T23:48:28.403Z,17.67
2023-09-26T23:50:54.744Z,18.27
2023-09-26T23:53:21.062Z,12.52
2023-09-26T23:55:47.403Z,15.82
2023-09-26T23:58:13.956Z,14.23
